sensor_id;sensor_type;location;lat;lon;timestamp;pressure;altitude;pressure_sealevel;temperature;humidity
31088;BME280;17745;55.914;37.554;2023-03-23T00:02:26;98880.19;;;8.40;46.19
31088;BME280;17745;55.914;37.554;2023-03-23T00:04:55;98874.59;;;8.36;46.25
31088;BME280;17745;55.914;37.554;2023-03-23T00:07:25;98875.41;;;8.37;46.29
31088;BME280;17745;55.914;37.554;2023-03-23T00:09:54;98872.22;;;8.35;46.35
31088;BME280;17745;55.914;37.554;2023-03-23T00:12:24;98879.09;;;8.36;46.33
31088;BME280;17745;55.914;37.554;2023-03-23T00:15:01;98870.63;;;8.34;46.40
31088;BME280;17745;55.914;37.554;2023-03-23T00:17:30;98849.53;;;8.34;46.44
31088;BME280;17745;55.914;37.554;2023-03-23T00:19:59;98848.47;;;8.35;46.44
31088;BME280;17745;55.914;37.554;2023-03-23T00:22:30;98848.72;;;8.33;46.44
31088;BME280;17745;55.914;37.554;2023-03-23T00:25:06;98849.25;;;8.35;46.41
31088;BME280;17745;55.914;37.554;2023-03-23T00:27:34;98848.22;;;8.36;46.43
31088;BME280;17745;55.914;37.554;2023-03-23T00:30:04;98846.94;;;8.39;46.41
31088;BME280;17745;55.914;37.554;2023-03-23T00:32:32;98847.75;;;8.39;46.47
31088;BME280;17745;55.914;37.554;2023-03-23T00:35:02;98848.22;;;8.36;46.58
31088;BME280;17745;55.914;37.554;2023-03-23T00:37:30;98849.06;;;8.42;46.46
31088;BME280;17745;55.914;37.554;2023-03-23T00:39:59;98840.13;;;8.43;46.42
31088;BME280;17745;55.914;37.554;2023-03-23T00:42:29;98834.06;;;8.42;46.45
31088;BME280;17745;55.914;37.554;2023-03-23T00:44:59;98832.19;;;8.43;46.45
31088;BME280;17745;55.914;37.554;2023-03-23T00:47:47;98830.09;;;8.45;46.48
31088;BME280;17745;55.914;37.554;2023-03-23T00:50:17;98833.31;;;8.47;46.49
31088;BME280;17745;55.914;37.554;2023-03-23T00:52:45;98829.81;;;8.41;46.57
31088;BME280;17745;55.914;37.554;2023-03-23T00:55:13;98830.59;;;8.42;46.58
31088;BME280;17745;55.914;37.554;2023-03-23T00:57:41;98825.34;;;8.42;46.57
31088;BME280;17745;55.914;37.554;2023-03-23T01:00:10;98821.91;;;8.41;46.62
31088;BME280;17745;55.914;37.554;2023-03-23T01:02:38;98830.59;;;8.42;46.61
31088;BME280;17745;55.914;37.554;2023-03-23T01:05:09;98833.00;;;8.43;46.61
31088;BME280;17745;55.914;37.554;2023-03-23T01:07:37;98829.81;;;8.41;46.71
31088;BME280;17745;55.914;37.554;2023-03-23T01:10:08;98824.28;;;8.43;46.74
31088;BME280;17745;55.914;37.554;2023-03-23T01:12:38;98827.47;;;8.45;46.75
31088;BME280;17745;55.914;37.554;2023-03-23T01:15:07;98823.09;;;8.51;46.67
31088;BME280;17745;55.914;37.554;2023-03-23T01:17:34;98815.47;;;8.54;46.63
31088;BME280;17745;55.914;37.554;2023-03-23T01:20:03;98813.16;;;8.58;46.61
31088;BME280;17745;55.914;37.554;2023-03-23T01:22:33;98813.97;;;8.64;46.55
31088;BME280;17745;55.914;37.554;2023-03-23T01:25:01;98815.03;;;8.63;46.61
31088;BME280;17745;55.914;37.554;2023-03-23T01:27:29;98811.59;;;8.62;46.58
31088;BME280;17745;55.914;37.554;2023-03-23T01:29:57;98813.81;;;8.48;46.81
31088;BME280;17745;55.914;37.554;2023-03-23T01:32:28;98805.78;;;8.38;46.88
31088;BME280;17745;55.914;37.554;2023-03-23T01:34:57;98799.28;;;8.23;46.99
31088;BME280;17745;55.914;37.554;2023-03-23T01:37:25;98804.13;;;8.09;47.19
31088;BME280;17745;55.914;37.554;2023-03-23T01:39:56;98795.31;;;7.98;47.36
31088;BME280;17745;55.914;37.554;2023-03-23T01:42:26;98792.56;;;7.88;47.67
31088;BME280;17745;55.914;37.554;2023-03-23T01:45:26;98796.63;;;7.79;47.77
31088;BME280;17745;55.914;37.554;2023-03-23T01:47:59;98790.25;;;7.75;47.97
31088;BME280;17745;55.914;37.554;2023-03-23T01:50:30;98788.34;;;7.70;48.00
31088;BME280;17745;55.914;37.554;2023-03-23T01:53:05;98787.25;;;7.66;48.08
31088;BME280;17745;55.914;37.554;2023-03-23T01:55:38;98783.75;;;7.60;48.21
31088;BME280;17745;55.914;37.554;2023-03-23T01:58:08;98784.78;;;7.59;48.37
31088;BME280;17745;55.914;37.554;2023-03-23T02:00:37;98779.50;;;7.59;48.35
31088;BME280;17745;55.914;37.554;2023-03-23T02:03:07;98778.72;;;7.58;48.40
31088;BME280;17745;55.914;37.554;2023-03-23T02:05:40;98781.37;;;7.58;48.48
31088;BME280;17745;55.914;37.554;2023-03-23T02:08:10;98777.44;;;7.61;48.43
31088;BME280;17745;55.914;37.554;2023-03-23T02:10:41;98764.44;;;7.54;48.52
31088;BME280;17745;55.914;37.554;2023-03-23T02:13:13;98759.41;;;7.53;48.67
31088;BME280;17745;55.914;37.554;2023-03-23T02:15:47;98760.94;;;7.49;48.83
31088;BME280;17745;55.914;37.554;2023-03-23T02:18:40;98766.78;;;7.51;48.93
31088;BME280;17745;55.914;37.554;2023-03-23T02:21:25;98759.66;;;7.51;49.08
31088;BME280;17745;55.914;37.554;2023-03-23T02:26:56;98749.66;;;7.53;49.12
31088;BME280;17745;55.914;37.554;2023-03-23T02:29:48;98749.94;;;7.52;49.16
31088;BME280;17745;55.914;37.554;2023-03-23T02:32:39;98744.66;;;7.52;49.20
31088;BME280;17745;55.914;37.554;2023-03-23T02:35:17;98753.28;;;7.47;49.38
31088;BME280;17745;55.914;37.554;2023-03-23T02:37:49;98746.25;;;7.53;49.28
31088;BME280;17745;55.914;37.554;2023-03-23T02:40:19;98759.16;;;7.54;49.29
31088;BME280;17745;55.914;37.554;2023-03-23T02:42:52;98751.03;;;7.56;49.26
31088;BME280;17745;55.914;37.554;2023-03-23T02:45:24;98754.69;;;7.55;49.26
31088;BME280;17745;55.914;37.554;2023-03-23T02:47:55;98752.50;;;7.47;49.39
31088;BME280;17745;55.914;37.554;2023-03-23T02:50:27;98754.81;;;7.43;49.59
31088;BME280;17745;55.914;37.554;2023-03-23T02:52:56;98760.84;;;7.43;49.51
31088;BME280;17745;55.914;37.554;2023-03-23T02:55:27;98756.63;;;7.42;49.60
31088;BME280;17745;55.914;37.554;2023-03-23T02:58:00;98751.63;;;7.41;49.62
31088;BME280;17745;55.914;37.554;2023-03-23T03:00:28;98759.25;;;7.42;49.55
31088;BME280;17745;55.914;37.554;2023-03-23T03:02:59;98752.41;;;7.41;49.63
31088;BME280;17745;55.914;37.554;2023-03-23T03:05:37;98741.31;;;7.39;49.60
31088;BME280;17745;55.914;37.554;2023-03-23T03:08:13;98743.16;;;7.39;49.76
31088;BME280;17745;55.914;37.554;2023-03-23T03:10:49;98753.72;;;7.39;49.81
31088;BME280;17745;55.914;37.554;2023-03-23T03:13:30;98750.25;;;7.38;49.86
31088;BME280;17745;55.914;37.554;2023-03-23T03:16:08;98751.06;;;7.39;49.93
31088;BME280;17745;55.914;37.554;2023-03-23T03:18:43;98745.31;;;7.42;49.90
31088;BME280;17745;55.914;37.554;2023-03-23T03:21:18;98739.78;;;7.43;49.85
31088;BME280;17745;55.914;37.554;2023-03-23T03:23:53;98743.22;;;7.44;49.85
31088;BME280;17745;55.914;37.554;2023-03-23T03:26:30;98735.81;;;7.41;49.84
31088;BME280;17745;55.914;37.554;2023-03-23T03:29:01;98728.47;;;7.43;49.92
31088;BME280;17745;55.914;37.554;2023-03-23T03:31:36;98728.69;;;7.41;49.92
31088;BME280;17745;55.914;37.554;2023-03-23T03:34:06;98728.16;;;7.39;50.05
31088;BME280;17745;55.914;37.554;2023-03-23T03:36:39;98743.47;;;7.42;50.08
31088;BME280;17745;55.914;37.554;2023-03-23T03:39:12;98737.97;;;7.44;50.07
31088;BME280;17745;55.914;37.554;2023-03-23T03:41:43;98736.91;;;7.45;50.11
31088;BME280;17745;55.914;37.554;2023-03-23T03:44:44;98738.28;;;7.48;50.10
31088;BME280;17745;55.914;37.554;2023-03-23T03:47:25;98737.16;;;7.43;50.30
31088;BME280;17745;55.914;37.554;2023-03-23T03:49:55;98732.53;;;7.51;50.16
31088;BME280;17745;55.914;37.554;2023-03-23T03:52:26;98717.75;;;7.50;50.22
31088;BME280;17745;55.914;37.554;2023-03-23T03:54:55;98709.59;;;7.51;50.30
31088;BME280;17745;55.914;37.554;2023-03-23T04:00:38;98721.28;;;7.55;50.36
31088;BME280;17745;55.914;37.554;2023-03-23T04:03:07;98718.91;;;7.59;50.30
31088;BME280;17745;55.914;37.554;2023-03-23T04:05:40;98723.69;;;7.62;50.25
31088;BME280;17745;55.914;37.554;2023-03-23T04:08:15;98721.16;;;7.67;50.22
31088;BME280;17745;55.914;37.554;2023-03-23T04:10:50;98724.34;;;7.69;50.24
31088;BME280;17745;55.914;37.554;2023-03-23T04:13:33;98728.31;;;7.72;50.21
31088;BME280;17745;55.914;37.554;2023-03-23T04:16:01;98725.75;;;7.77;50.17
31088;BME280;17745;55.914;37.554;2023-03-23T04:18:32;98718.06;;;7.76;50.33
31088;BME280;17745;55.914;37.554;2023-03-23T04:21:05;98716.00;;;7.78;50.34
31088;BME280;17745;55.914;37.554;2023-03-23T04:23:37;98726.53;;;7.78;50.42
31088;BME280;17745;55.914;37.554;2023-03-23T04:26:06;98722.63;;;7.80;50.42
31088;BME280;17745;55.914;37.554;2023-03-23T04:28:43;98722.91;;;7.84;50.42
31088;BME280;17745;55.914;37.554;2023-03-23T04:31:14;98716.59;;;7.85;50.50
31088;BME280;17745;55.914;37.554;2023-03-23T04:33:49;98713.47;;;7.88;50.44
31088;BME280;17745;55.914;37.554;2023-03-23T04:36:20;98710.03;;;7.87;50.59
31088;BME280;17745;55.914;37.554;2023-03-23T04:38:59;98709.84;;;7.94;50.45
31088;BME280;17745;55.914;37.554;2023-03-23T04:41:29;98713.03;;;7.96;50.52
31088;BME280;17745;55.914;37.554;2023-03-23T04:43:58;98703.78;;;7.94;50.67
31088;BME280;17745;55.914;37.554;2023-03-23T04:46:33;98715.97;;;8.00;50.59
31088;BME280;17745;55.914;37.554;2023-03-23T04:49:05;98726.88;;;8.09;50.56
31088;BME280;17745;55.914;37.554;2023-03-23T04:51:43;98716.62;;;8.12;50.55
31088;BME280;17745;55.914;37.554;2023-03-23T04:54:28;98718.53;;;8.17;50.52
31088;BME280;17745;55.914;37.554;2023-03-23T04:57:21;98728.87;;;8.24;50.45
31088;BME280;17745;55.914;37.554;2023-03-23T04:59:52;98735.56;;;8.32;50.39
31088;BME280;17745;55.914;37.554;2023-03-23T05:02:21;98726.09;;;8.36;50.42
31088;BME280;17745;55.914;37.554;2023-03-23T05:04:52;98724.00;;;8.38;50.43
31088;BME280;17745;55.914;37.554;2023-03-23T05:07:20;98733.81;;;8.42;50.46
31088;BME280;17745;55.914;37.554;2023-03-23T05:09:53;98729.81;;;8.40;50.56
31088;BME280;17745;55.914;37.554;2023-03-23T05:12:26;98728.81;;;8.46;50.53
31088;BME280;17745;55.914;37.554;2023-03-23T05:15:22;98732.81;;;8.49;50.59
31088;BME280;17745;55.914;37.554;2023-03-23T05:17:51;98725.78;;;8.54;50.53
31088;BME280;17745;55.914;37.554;2023-03-23T05:20:19;98734.47;;;8.55;50.59
31088;BME280;17745;55.914;37.554;2023-03-23T05:22:48;98711.31;;;8.62;50.51
31088;BME280;17745;55.914;37.554;2023-03-23T05:25:24;98736.47;;;8.70;50.41
31088;BME280;17745;55.914;37.554;2023-03-23T05:27:52;98731.22;;;8.75;50.35
31088;BME280;17745;55.914;37.554;2023-03-23T05:30:26;98734.91;;;8.74;50.40
31088;BME280;17745;55.914;37.554;2023-03-23T05:32:57;98711.13;;;8.69;50.48
31088;BME280;17745;55.914;37.554;2023-03-23T05:35:31;98715.81;;;8.67;50.63
31088;BME280;17745;55.914;37.554;2023-03-23T05:37:59;98725.19;;;8.80;50.45
31088;BME280;17745;55.914;37.554;2023-03-23T05:40:34;98727.87;;;8.85;50.42
31088;BME280;17745;55.914;37.554;2023-03-23T05:43:02;98724.00;;;8.98;50.29
31088;BME280;17745;55.914;37.554;2023-03-23T05:45:31;98721.91;;;9.05;50.07
31088;BME280;17745;55.914;37.554;2023-03-23T05:48:08;98716.69;;;9.10;49.99
31088;BME280;17745;55.914;37.554;2023-03-23T05:50:38;98712.19;;;9.11;50.02
31088;BME280;17745;55.914;37.554;2023-03-23T05:53:08;98726.22;;;9.11;49.90
31088;BME280;17745;55.914;37.554;2023-03-23T05:55:42;98728.87;;;9.17;49.95
31088;BME280;17745;55.914;37.554;2023-03-23T05:58:13;98722.03;;;9.21;49.78
31088;BME280;17745;55.914;37.554;2023-03-23T06:00:44;98729.72;;;9.22;49.79
31088;BME280;17745;55.914;37.554;2023-03-23T06:03:17;98721.81;;;9.33;49.67
31088;BME280;17745;55.914;37.554;2023-03-23T06:05:45;98726.09;;;9.39;49.52
31088;BME280;17745;55.914;37.554;2023-03-23T06:08:14;98721.63;;;9.44;49.43
31088;BME280;17745;55.914;37.554;2023-03-23T06:10:48;98713.19;;;9.48;49.42
31088;BME280;17745;55.914;37.554;2023-03-23T06:13:22;98722.75;;;9.54;49.44
31088;BME280;17745;55.914;37.554;2023-03-23T06:15:55;98713.53;;;9.67;49.28
31088;BME280;17745;55.914;37.554;2023-03-23T06:18:25;98719.66;;;9.72;49.06
31088;BME280;17745;55.914;37.554;2023-03-23T06:21:05;98712.28;;;9.80;49.07
31088;BME280;17745;55.914;37.554;2023-03-23T06:23:36;98717.03;;;9.83;48.94
31088;BME280;17745;55.914;37.554;2023-03-23T06:26:09;98724.44;;;9.86;48.90
31088;BME280;17745;55.914;37.554;2023-03-23T06:28:38;98719.97;;;9.86;48.90
31088;BME280;17745;55.914;37.554;2023-03-23T06:31:10;98716.56;;;9.91;48.83
31088;BME280;17745;55.914;37.554;2023-03-23T06:33:42;98712.03;;;9.92;48.79
31088;BME280;17745;55.914;37.554;2023-03-23T06:36:16;98718.16;;;10.08;48.59
31088;BME280;17745;55.914;37.554;2023-03-23T06:38:46;98709.97;;;10.20;48.36
31088;BME280;17745;55.914;37.554;2023-03-23T06:41:17;98708.44;;;10.29;48.25
31088;BME280;17745;55.914;37.554;2023-03-23T06:43:48;98719.00;;;10.34;48.21
31088;BME280;17745;55.914;37.554;2023-03-23T06:46:26;98721.94;;;10.38;47.89
31088;BME280;17745;55.914;37.554;2023-03-23T06:48:57;98715.09;;;10.42;47.83
31088;BME280;17745;55.914;37.554;2023-03-23T06:51:26;98713.25;;;10.48;47.93
31088;BME280;17745;55.914;37.554;2023-03-23T06:53:56;98699.47;;;10.51;47.68
31088;BME280;17745;55.914;37.554;2023-03-23T06:56:35;98707.69;;;10.49;47.60
31088;BME280;17745;55.914;37.554;2023-03-23T06:59:05;98711.66;;;10.47;47.44
31088;BME280;17745;55.914;37.554;2023-03-23T07:01:35;98706.37;;;10.47;47.50
31088;BME280;17745;55.914;37.554;2023-03-23T07:04:05;98703.72;;;10.52;47.39
31088;BME280;17745;55.914;37.554;2023-03-23T07:06:43;98696.06;;;10.55;47.30
31088;BME280;17745;55.914;37.554;2023-03-23T07:09:14;98699.22;;;10.63;47.18
31088;BME280;17745;55.914;37.554;2023-03-23T07:11:49;98692.34;;;10.56;47.14
31088;BME280;17745;55.914;37.554;2023-03-23T07:14:28;98693.38;;;10.66;47.07
31088;BME280;17745;55.914;37.554;2023-03-23T07:17:09;98703.44;;;10.69;46.90
31088;BME280;17745;55.914;37.554;2023-03-23T07:19:45;98705.06;;;10.75;46.72
31088;BME280;17745;55.914;37.554;2023-03-23T07:22:24;98693.66;;;10.80;46.68
31088;BME280;17745;55.914;37.554;2023-03-23T07:26:10;98708.22;;;10.87;46.61
31088;BME280;17745;55.914;37.554;2023-03-23T07:28:30;98687.81;;;11.04;46.22
31088;BME280;17745;55.914;37.554;2023-03-23T07:30:59;98699.16;;;11.09;46.05
31088;BME280;17745;55.914;37.554;2023-03-23T07:33:32;98684.31;;;11.19;45.72
31088;BME280;17745;55.914;37.554;2023-03-23T07:36:21;98692.53;;;11.17;45.70
31088;BME280;17745;55.914;37.554;2023-03-23T07:39:12;98688.25;;;11.32;45.54
31088;BME280;17745;55.914;37.554;2023-03-23T07:41:43;98678.72;;;11.36;45.44
31088;BME280;17745;55.914;37.554;2023-03-23T07:44:32;98683.75;;;11.37;45.17
31088;BME280;17745;55.914;37.554;2023-03-23T07:47:13;98679.22;;;11.38;44.92
31088;BME280;17745;55.914;37.554;2023-03-23T07:50:19;98678.69;;;11.41;44.92
31088;BME280;17745;55.914;37.554;2023-03-23T07:53:19;98675.56;;;11.28;44.81
31088;BME280;17745;55.914;37.554;2023-03-23T07:59:28;98684.75;;;11.57;44.38
31088;BME280;17745;55.914;37.554;2023-03-23T08:03:49;98670.91;;;11.65;44.13
31088;BME280;17745;55.914;37.554;2023-03-23T08:05:59;98657.56;;;11.81;43.92
31088;BME280;17745;55.914;37.554;2023-03-23T08:08:38;98668.63;;;11.93;43.69
31088;BME280;17745;55.914;37.554;2023-03-23T08:11:42;98672.91;;;11.89;43.63
31088;BME280;17745;55.914;37.554;2023-03-23T08:14:52;98659.34;;;12.01;43.39
31088;BME280;17745;55.914;37.554;2023-03-23T08:17:25;98669.69;;;12.03;43.16
31088;BME280;17745;55.914;37.554;2023-03-23T08:20:07;98649.69;;;12.15;42.96
31088;BME280;17745;55.914;37.554;2023-03-23T08:22:57;98655.66;;;12.37;42.89
31088;BME280;17745;55.914;37.554;2023-03-23T08:25:46;98648.16;;;12.44;42.60
31088;BME280;17745;55.914;37.554;2023-03-23T08:28:44;98646.00;;;12.46;42.39
31088;BME280;17745;55.914;37.554;2023-03-23T08:31:25;98634.78;;;12.54;42.11
31088;BME280;17745;55.914;37.554;2023-03-23T08:33:56;98634.66;;;12.70;42.09
31088;BME280;17745;55.914;37.554;2023-03-23T08:36:31;98625.00;;;12.79;41.92
31088;BME280;17745;55.914;37.554;2023-03-23T08:39:01;98624.94;;;12.84;41.55
31088;BME280;17745;55.914;37.554;2023-03-23T08:41:32;98628.13;;;12.86;41.39
31088;BME280;17745;55.914;37.554;2023-03-23T08:44:03;98624.50;;;12.77;41.34
31088;BME280;17745;55.914;37.554;2023-03-23T08:46:46;98619.97;;;12.78;41.28
31088;BME280;17745;55.914;37.554;2023-03-23T08:49:15;98614.75;;;12.97;41.15
31088;BME280;17745;55.914;37.554;2023-03-23T08:52:26;98615.00;;;13.20;41.03
31088;BME280;17745;55.914;37.554;2023-03-23T08:54:55;98588.53;;;13.34;40.52
31088;BME280;17745;55.914;37.554;2023-03-23T08:57:38;98599.09;;;13.39;40.20
31088;BME280;17745;55.914;37.554;2023-03-23T09:00:13;98599.50;;;13.51;40.35
31088;BME280;17745;55.914;37.554;2023-03-23T09:02:59;98593.41;;;13.70;40.08
31088;BME280;17745;55.914;37.554;2023-03-23T09:05:30;98592.38;;;13.85;39.73
31088;BME280;17745;55.914;37.554;2023-03-23T09:08:02;98588.06;;;13.89;39.84
31088;BME280;17745;55.914;37.554;2023-03-23T09:10:36;98588.34;;;13.87;39.65
31088;BME280;17745;55.914;37.554;2023-03-23T09:13:15;98582.72;;;13.89;39.35
31088;BME280;17745;55.914;37.554;2023-03-23T09:15:49;98585.63;;;13.93;39.43
31088;BME280;17745;55.914;37.554;2023-03-23T09:18:42;98581.00;;;13.98;39.21
31088;BME280;17745;55.914;37.554;2023-03-23T09:21:11;98575.78;;;14.07;38.86
31088;BME280;17745;55.914;37.554;2023-03-23T09:23:53;98565.84;;;14.13;39.11
31088;BME280;17745;55.914;37.554;2023-03-23T09:40:51;98552.87;;;14.25;37.96
31088;BME280;17745;55.914;37.554;2023-03-23T09:43:35;98539.78;;;14.29;37.94
31088;BME280;17745;55.914;37.554;2023-03-23T09:46:26;98537.13;;;14.29;37.89
31088;BME280;17745;55.914;37.554;2023-03-23T09:48:59;98530.72;;;14.44;37.88
31088;BME280;17745;55.914;37.554;2023-03-23T09:51:41;98528.84;;;14.58;37.75
31088;BME280;17745;55.914;37.554;2023-03-23T09:54:23;98521.06;;;14.62;37.75
31088;BME280;17745;55.914;37.554;2023-03-23T09:56:59;98514.25;;;14.70;37.30
31088;BME280;17745;55.914;37.554;2023-03-23T09:59:34;98527.69;;;14.65;37.11
31088;BME280;17745;55.914;37.554;2023-03-23T10:02:12;98524.22;;;14.64;37.13
31088;BME280;17745;55.914;37.554;2023-03-23T10:04:44;98523.06;;;14.70;37.16
31088;BME280;17745;55.914;37.554;2023-03-23T10:07:14;98529.78;;;14.82;36.82
31088;BME280;17745;55.914;37.554;2023-03-23T10:13:22;98509.13;;;14.60;36.71
31088;BME280;17745;55.914;37.554;2023-03-23T10:16:53;98508.78;;;14.80;36.68
31088;BME280;17745;55.914;37.554;2023-03-23T10:26:07;98485.06;;;15.29;35.87
31088;BME280;17745;55.914;37.554;2023-03-23T10:28:42;98480.66;;;15.25;35.48
31088;BME280;17745;55.914;37.554;2023-03-23T10:31:17;98477.84;;;15.30;35.60
31088;BME280;17745;55.914;37.554;2023-03-23T10:33:53;98490.94;;;15.40;35.11
31088;BME280;17745;55.914;37.554;2023-03-23T10:36:36;98482.91;;;15.54;35.34
31088;BME280;17745;55.914;37.554;2023-03-23T10:39:12;98485.09;;;15.75;35.12
31088;BME280;17745;55.914;37.554;2023-03-23T10:41:43;98481.56;;;15.89;34.93
31088;BME280;17745;55.914;37.554;2023-03-23T10:44:18;98487.91;;;15.93;34.68
31088;BME280;17745;55.914;37.554;2023-03-23T10:47:00;98479.28;;;15.96;34.69
31088;BME280;17745;55.914;37.554;2023-03-23T10:49:36;98478.00;;;15.93;34.50
31088;BME280;17745;55.914;37.554;2023-03-23T10:52:13;98494.25;;;15.83;34.10
31088;BME280;17745;55.914;37.554;2023-03-23T10:54:55;98496.88;;;15.74;34.08
31088;BME280;17745;55.914;37.554;2023-03-23T10:57:27;98493.09;;;15.75;34.25
31088;BME280;17745;55.914;37.554;2023-03-23T11:00:05;98485.91;;;16.07;34.13
31088;BME280;17745;55.914;37.554;2023-03-23T11:02:43;98494.25;;;16.37;33.61
31088;BME280;17745;55.914;37.554;2023-03-23T11:05:35;98498.06;;;16.63;33.48
31088;BME280;17745;55.914;37.554;2023-03-23T11:08:26;98494.78;;;16.57;32.97
31088;BME280;17745;55.914;37.554;2023-03-23T11:11:16;98498.41;;;16.61;32.96
31088;BME280;17745;55.914;37.554;2023-03-23T11:13:57;98487.13;;;16.82;32.95
31088;BME280;17745;55.914;37.554;2023-03-23T11:16:31;98458.91;;;17.07;32.59
31088;BME280;17745;55.914;37.554;2023-03-23T11:19:13;98485.63;;;17.07;32.54
31088;BME280;17745;55.914;37.554;2023-03-23T11:21:50;98483.84;;;16.94;32.43
31088;BME280;17745;55.914;37.554;2023-03-23T11:24:40;98485.53;;;16.72;32.49
31088;BME280;17745;55.914;37.554;2023-03-23T11:27:31;98497.97;;;16.68;32.66
31088;BME280;17745;55.914;37.554;2023-03-23T11:30:10;98505.66;;;16.69;32.76
31088;BME280;17745;55.914;37.554;2023-03-23T11:32:45;98490.59;;;16.74;32.71
31088;BME280;17745;55.914;37.554;2023-03-23T11:35:26;98497.63;;;16.69;32.73
31088;BME280;17745;55.914;37.554;2023-03-23T11:37:58;98509.16;;;16.87;32.54
31088;BME280;17745;55.914;37.554;2023-03-23T11:43:20;98503.38;;;16.45;32.79
31088;BME280;17745;55.914;37.554;2023-03-23T11:46:00;98494.84;;;16.34;32.97
31088;BME280;17745;55.914;37.554;2023-03-23T11:49:01;98492.63;;;16.77;32.77
31088;BME280;17745;55.914;37.554;2023-03-23T11:51:41;98492.63;;;16.77;32.77
31088;BME280;17745;55.914;37.554;2023-03-23T11:54:16;98488.47;;;16.53;32.92
31088;BME280;17745;55.914;37.554;2023-03-23T11:56:58;98499.91;;;16.44;32.90
31088;BME280;17745;55.914;37.554;2023-03-23T11:59:34;98497.34;;;16.31;33.23
31088;BME280;17745;55.914;37.554;2023-03-23T12:02:43;98498.63;;;16.42;33.21
31088;BME280;17745;55.914;37.554;2023-03-23T12:06:01;98484.22;;;16.43;33.16
31088;BME280;17745;55.914;37.554;2023-03-23T12:08:58;98480.53;;;16.30;33.34
31088;BME280;17745;55.914;37.554;2023-03-23T12:11:39;98483.25;;;16.07;33.56
31088;BME280;17745;55.914;37.554;2023-03-23T12:14:18;98481.28;;;15.90;33.82
31088;BME280;17745;55.914;37.554;2023-03-23T12:17:00;98488.97;;;15.69;34.24
31088;BME280;17745;55.914;37.554;2023-03-23T12:19:45;98486.28;;;15.69;34.38
31088;BME280;17745;55.914;37.554;2023-03-23T12:22:39;98482.78;;;15.82;34.18
31088;BME280;17745;55.914;37.554;2023-03-23T12:25:38;98482.91;;;16.00;34.14
31088;BME280;17745;55.914;37.554;2023-03-23T12:28:35;98469.97;;;16.25;33.96
31088;BME280;17745;55.914;37.554;2023-03-23T12:34:24;98459.41;;;16.51;33.62
31088;BME280;17745;55.914;37.554;2023-03-23T12:37:38;98467.31;;;16.74;33.33
31088;BME280;17745;55.914;37.554;2023-03-23T12:40:51;98461.16;;;16.65;33.45
31088;BME280;17745;55.914;37.554;2023-03-23T12:43:34;98458.00;;;16.63;33.37
31088;BME280;17745;55.914;37.554;2023-03-23T12:47:03;98463.13;;;16.41;33.46
31088;BME280;17745;55.914;37.554;2023-03-23T12:49:53;98439.63;;;16.12;33.80
31088;BME280;17745;55.914;37.554;2023-03-23T12:52:45;98445.09;;;16.07;33.82
31088;BME280;17745;55.914;37.554;2023-03-23T12:55:30;98435.41;;;15.88;34.15
31088;BME280;17745;55.914;37.554;2023-03-23T12:58:07;98444.38;;;15.92;34.12
31088;BME280;17745;55.914;37.554;2023-03-23T13:00:55;98421.69;;;16.04;34.10
31088;BME280;17745;55.914;37.554;2023-03-23T13:03:27;98433.19;;;16.13;33.94
31088;BME280;17745;55.914;37.554;2023-03-23T13:06:04;98445.16;;;16.24;33.83
31088;BME280;17745;55.914;37.554;2023-03-23T13:08:42;98429.19;;;16.33;33.77
31088;BME280;17745;55.914;37.554;2023-03-23T13:11:32;98431.84;;;16.33;33.70
31088;BME280;17745;55.914;37.554;2023-03-23T13:14:40;98431.50;;;16.26;33.74
31088;BME280;17745;55.914;37.554;2023-03-23T13:17:34;98431.31;;;16.22;33.75
31088;BME280;17745;55.914;37.554;2023-03-23T13:21:00;98424.06;;;16.14;33.90
31088;BME280;17745;55.914;37.554;2023-03-23T13:23:42;98424.03;;;16.05;34.06
31088;BME280;17745;55.914;37.554;2023-03-23T13:26:21;98424.88;;;15.83;34.37
31088;BME280;17745;55.914;37.554;2023-03-23T13:29:10;98418.84;;;15.77;34.48
31088;BME280;17745;55.914;37.554;2023-03-23T13:31:44;98426.25;;;15.80;34.45
31088;BME280;17745;55.914;37.554;2023-03-23T13:34:25;98416.44;;;15.67;34.67
31088;BME280;17745;55.914;37.554;2023-03-23T13:37:00;98395.66;;;15.55;34.84
31088;BME280;17745;55.914;37.554;2023-03-23T13:39:51;98406.28;;;15.46;35.03
31088;BME280;17745;55.914;37.554;2023-03-23T13:42:27;98419.66;;;15.55;35.00
31088;BME280;17745;55.914;37.554;2023-03-23T13:45:20;98407.00;;;15.61;34.96
31088;BME280;17745;55.914;37.554;2023-03-23T13:48:04;98402.63;;;15.65;35.00
31088;BME280;17745;55.914;37.554;2023-03-23T13:50:54;98392.75;;;15.65;34.99
31088;BME280;17745;55.914;37.554;2023-03-23T13:53:29;98393.03;;;15.64;35.01
31088;BME280;17745;55.914;37.554;2023-03-23T13:56:21;98396.75;;;15.54;35.17
31088;BME280;17745;55.914;37.554;2023-03-23T13:59:05;98395.66;;;15.55;35.25
31088;BME280;17745;55.914;37.554;2023-03-23T14:01:53;98387.16;;;15.53;35.24
31088;BME280;17745;55.914;37.554;2023-03-23T14:04:46;98394.28;;;15.35;35.38
31088;BME280;17745;55.914;37.554;2023-03-23T14:07:21;98400.66;;;15.25;35.59
31088;BME280;17745;55.914;37.554;2023-03-23T14:10:14;98381.94;;;15.16;35.68
31088;BME280;17745;55.914;37.554;2023-03-23T14:12:54;98393.69;;;15.15;35.73
31088;BME280;17745;55.914;37.554;2023-03-23T14:15:29;98379.69;;;15.09;35.83
31088;BME280;17745;55.914;37.554;2023-03-23T14:18:02;98379.91;;;14.99;35.98
31088;BME280;17745;55.914;37.554;2023-03-23T14:20:38;98383.59;;;14.89;36.18
31088;BME280;17745;55.914;37.554;2023-03-23T14:23:15;98381.66;;;14.81;36.29
31088;BME280;17745;55.914;37.554;2023-03-23T14:26:05;98378.69;;;14.82;36.31
31088;BME280;17745;55.914;37.554;2023-03-23T14:28:55;98374.94;;;14.83;36.42
31088;BME280;17745;55.914;37.554;2023-03-23T14:31:32;98340.84;;;14.94;36.31
31088;BME280;17745;55.914;37.554;2023-03-23T14:34:16;98358.53;;;14.90;36.36